createdAt,value
2022-11-14T00:00:24.854Z,42.67
2022-11-14T00:02:27.775Z,43.70
2022-11-14T00:04:29.938Z,54.00
2022-11-14T00:06:32.389Z,45.20
2022-11-14T00:08:34.916Z,43.40
2022-11-14T00:10:36.627Z,45.90
2022-11-14T00:12:38.357Z,41.33
2022-11-14T00:14:40.157Z,43.00
2022-11-14T00:16:41.961Z,48.88
2022-11-14T00:18:43.636Z,43.20
2022-11-14T00:20:48.975Z,47.03
2022-11-14T00:22:50.800Z,44.28
2022-11-14T00:24:52.465Z,46.25
2022-11-14T00:26:54.296Z,49.85
2022-11-14T00:28:56.021Z,46.80
2022-11-14T00:30:57.762Z,48.30
2022-11-14T00:32:59.538Z,47.45
2022-11-14T00:35:01.195Z,52.60
2022-11-14T00:37:02.916Z,48.08
2022-11-14T00:39:05.000Z,52.00
2022-11-14T00:41:06.768Z,50.60
2022-11-14T00:43:08.462Z,49.33
2022-11-14T00:45:11.092Z,51.95
2022-11-14T00:47:12.821Z,48.97
2022-11-14T00:49:14.471Z,46.53
2022-11-14T00:51:16.221Z,52.53
2022-11-14T00:53:18.119Z,51.25
2022-11-14T00:55:19.745Z,50.42
2022-11-14T00:57:21.476Z,44.95
2022-11-14T00:59:23.145Z,47.97
2022-11-14T01:01:24.869Z,43.42
2022-11-14T01:03:26.560Z,43.03
2022-11-14T01:05:28.459Z,45.92
2022-11-14T01:07:30.186Z,42.55
2022-11-14T01:09:32.061Z,42.63
2022-11-14T01:11:33.845Z,39.05
2022-11-14T01:13:35.645Z,43.70
2022-11-14T01:15:48.130Z,44.92
2022-11-14T01:17:49.775Z,41.30
2022-11-14T01:19:51.500Z,38.45
2022-11-14T01:21:53.238Z,38.63
2022-11-14T01:23:54.918Z,39.05
2022-11-14T01:26:02.866Z,37.30
2022-11-14T01:28:15.724Z,36.95
2022-11-14T01:30:17.584Z,31.20
2022-11-14T01:32:19.310Z,38.20
2022-11-14T01:34:20.985Z,32.97
2022-11-14T01:36:22.666Z,34.47
2022-11-14T01:38:24.500Z,37.33
2022-11-14T01:40:27.141Z,33.08
2022-11-14T01:42:28.821Z,31.58
2022-11-14T01:44:40.781Z,29.00
2022-11-14T01:46:46.921Z,30.48
2022-11-14T01:48:57.257Z,33.22
2022-11-14T01:51:05.455Z,34.47
2022-11-14T01:53:07.230Z,32.67
2022-11-14T01:55:10.386Z,29.73
2022-11-14T01:57:14.516Z,33.03
2022-11-14T01:59:22.300Z,31.65
2022-11-14T02:01:25.957Z,26.65
2022-11-14T02:03:28.105Z,28.45
2022-11-14T02:05:31.216Z,31.67
2022-11-14T02:07:37.320Z,27.42
2022-11-14T02:09:43.243Z,31.55
2022-11-14T02:11:46.122Z,36.10
2022-11-14T02:13:48.029Z,31.27
2022-11-14T02:15:50.330Z,30.98
2022-11-14T02:17:52.222Z,27.75
2022-11-14T02:20:05.793Z,31.83
2022-11-14T02:22:07.530Z,29.35
2022-11-14T02:24:11.261Z,31.42
2022-11-14T02:26:12.955Z,29.33
2022-11-14T02:28:14.691Z,29.27
2022-11-14T02:30:20.030Z,42.55
2022-11-14T02:32:21.691Z,30.55
2022-11-14T02:34:23.445Z,30.23
2022-11-14T02:36:25.670Z,31.17
2022-11-14T02:38:27.653Z,30.05
2022-11-14T02:40:29.608Z,26.05
2022-11-14T02:42:31.382Z,33.38
2022-11-14T02:44:33.201Z,30.77
2022-11-14T02:46:35.110Z,29.77
2022-11-14T02:48:36.815Z,29.30
2022-11-14T02:50:38.540Z,33.10
2022-11-14T02:52:40.555Z,32.28
2022-11-14T02:54:42.410Z,34.35
2022-11-14T02:56:44.464Z,34.70
2022-11-14T02:58:46.335Z,28.63
2022-11-14T03:01:13.446Z,33.30
2022-11-14T03:03:10.054Z,38.53
2022-11-14T03:05:12.086Z,30.58
2022-11-14T03:07:13.900Z,34.45
2022-11-14T03:09:15.803Z,34.92
2022-11-14T03:11:17.656Z,28.90
2022-11-14T03:13:19.745Z,29.08
2022-11-14T03:15:21.605Z,29.58
2022-11-14T03:17:24.828Z,36.42
2022-11-14T03:19:26.849Z,28.73
2022-11-14T03:21:28.927Z,28.85
2022-11-14T03:23:30.726Z,35.85
2022-11-14T03:25:32.756Z,28.95
2022-11-14T03:27:34.607Z,28.35
2022-11-14T03:29:36.575Z,29.50
2022-11-14T03:31:38.418Z,28.55
2022-11-14T03:33:40.439Z,28.40
2022-11-14T03:35:44.045Z,29.08
2022-11-14T03:37:46.046Z,28.80
2022-11-14T03:39:47.815Z,32.50
2022-11-14T03:41:49.776Z,30.42
2022-11-14T03:43:51.768Z,27.00
2022-11-14T03:45:53.630Z,30.45
2022-11-14T03:47:55.737Z,28.15
2022-11-14T03:49:57.720Z,29.35
2022-11-14T03:51:59.455Z,29.42
2022-11-14T03:54:01.229Z,29.50
2022-11-14T03:56:03.269Z,35.03
2022-11-14T03:58:05.187Z,31.40
2022-11-14T04:00:09.245Z,29.80
2022-11-14T04:02:11.044Z,32.75
2022-11-14T04:04:13.504Z,31.20
2022-11-14T04:06:15.458Z,28.67
2022-11-14T04:08:17.686Z,30.75
2022-11-14T04:10:19.846Z,29.67
2022-11-14T04:12:21.865Z,29.13
2022-11-14T04:14:23.692Z,31.70
2022-11-14T04:16:25.705Z,31.55
2022-11-14T04:18:27.854Z,30.45
2022-11-14T04:20:29.770Z,34.88
2022-11-14T04:22:31.456Z,31.10
2022-11-14T04:24:33.156Z,30.30
2022-11-14T04:26:34.887Z,28.67
2022-11-14T04:28:36.616Z,29.92
2022-11-14T04:30:38.811Z,28.38
2022-11-14T04:32:40.575Z,26.65
2022-11-14T04:34:42.313Z,26.20
2022-11-14T04:36:44.513Z,22.63
2022-11-14T04:38:46.296Z,23.33
2022-11-14T04:40:51.109Z,22.90
2022-11-14T04:42:52.817Z,23.83
2022-11-14T04:44:54.672Z,25.35
2022-11-14T04:46:57.233Z,19.23
2022-11-14T04:48:58.926Z,19.23
2022-11-14T04:51:00.645Z,19.85
2022-11-14T04:53:02.461Z,19.65
2022-11-14T04:55:04.725Z,23.40
2022-11-14T04:57:06.508Z,18.85
2022-11-14T04:59:08.336Z,22.88
2022-11-14T05:01:11.654Z,21.45
2022-11-14T05:03:13.505Z,21.30
2022-11-14T05:05:15.616Z,18.95
2022-11-14T05:07:17.409Z,25.33
2022-11-14T05:09:19.132Z,23.00
2022-11-14T05:11:26.583Z,21.65
2022-11-14T05:13:31.006Z,24.15
2022-11-14T05:15:32.690Z,25.33
2022-11-14T05:17:34.362Z,22.85
2022-11-14T05:19:36.070Z,22.55
2022-11-14T05:21:37.767Z,24.73
2022-11-14T05:23:39.471Z,22.77
2022-11-14T05:25:41.201Z,24.50
2022-11-14T05:27:42.882Z,23.73
2022-11-14T05:29:44.586Z,23.75
2022-11-14T05:31:46.250Z,20.55
2022-11-14T05:33:48.393Z,22.27
2022-11-14T05:35:50.441Z,23.38
2022-11-14T05:37:56.049Z,21.02
2022-11-14T05:40:00.670Z,21.70
2022-11-14T05:42:02.452Z,26.45
2022-11-14T05:44:04.891Z,21.92
2022-11-14T05:46:11.176Z,24.40
2022-11-14T05:48:12.877Z,22.60
2022-11-14T05:50:14.626Z,20.60
2022-11-14T05:52:16.287Z,22.30
2022-11-14T05:54:17.991Z,20.00
2022-11-14T05:56:19.691Z,19.73
2022-11-14T05:58:22.177Z,18.85
2022-11-14T06:00:23.890Z,17.77
2022-11-14T06:02:25.625Z,15.07
2022-11-14T06:04:27.391Z,17.38
2022-11-14T06:06:29.087Z,18.38
2022-11-14T06:08:31.935Z,15.68
2022-11-14T06:10:35.807Z,18.25
2022-11-14T06:12:37.446Z,16.35
2022-11-14T06:14:39.132Z,15.93
2022-11-14T06:16:40.795Z,19.42
2022-11-14T06:18:43.223Z,15.20
2022-11-14T06:20:45.177Z,14.80
2022-11-14T06:22:47.174Z,14.38
2022-11-14T06:24:48.876Z,17.13
2022-11-14T06:26:50.553Z,13.73
2022-11-14T06:28:53.690Z,17.55
2022-11-14T06:31:00.033Z,17.30
2022-11-14T06:33:01.793Z,24.42
2022-11-14T06:35:03.826Z,27.58
2022-11-14T06:37:05.807Z,31.98
2022-11-14T06:39:07.578Z,38.17
2022-11-14T06:41:15.709Z,33.35
2022-11-14T06:43:17.363Z,40.30
2022-11-14T06:45:19.111Z,41.72
2022-11-14T06:47:20.916Z,40.70
2022-11-14T06:49:24.957Z,39.28
2022-11-14T06:51:26.944Z,39.67
2022-11-14T06:53:31.036Z,43.28
2022-11-14T06:55:32.927Z,41.75
2022-11-14T06:57:34.768Z,36.55
2022-11-14T06:59:36.756Z,37.95
2022-11-14T07:01:38.556Z,39.15
2022-11-14T07:03:41.245Z,34.50
2022-11-14T07:05:43.317Z,35.75
2022-11-14T07:07:45.318Z,37.58
2022-11-14T07:09:47.140Z,38.75
2022-11-14T07:11:48.919Z,38.00
2022-11-14T07:13:53.679Z,38.08
2022-11-14T07:15:55.728Z,36.40
2022-11-14T07:17:59.057Z,33.88
2022-11-14T07:20:01.025Z,35.08
2022-11-14T07:22:03.086Z,38.05
2022-11-14T07:24:05.339Z,35.20
2022-11-14T07:26:09.885Z,39.05
2022-11-14T07:28:14.426Z,35.83
2022-11-14T07:30:18.605Z,37.45
2022-11-14T07:32:20.445Z,38.72
2022-11-14T07:34:22.358Z,33.90
2022-11-14T07:36:24.595Z,36.38
2022-11-14T07:38:27.017Z,35.33
2022-11-14T07:40:29.203Z,35.83
2022-11-14T07:42:31.251Z,36.00
2022-11-14T07:44:33.038Z,34.80
2022-11-14T07:46:34.927Z,32.42
2022-11-14T07:48:36.859Z,32.15
2022-11-14T07:50:38.829Z,31.58
2022-11-14T07:52:42.709Z,37.25
2022-11-14T07:54:44.519Z,28.88
2022-11-14T07:56:46.427Z,32.35
2022-11-14T07:58:48.434Z,29.67
2022-11-14T08:00:50.306Z,29.75
2022-11-14T08:02:52.279Z,32.30
2022-11-14T08:04:54.081Z,30.80
2022-11-14T08:06:56.051Z,32.53
2022-11-14T08:08:58.054Z,29.48
2022-11-14T08:11:00.647Z,33.10
2022-11-14T08:13:30.271Z,29.75
2022-11-14T08:15:27.850Z,30.25
2022-11-14T08:17:29.745Z,32.42
2022-11-14T08:19:34.389Z,30.63
2022-11-14T08:21:36.768Z,33.65
2022-11-14T08:23:39.006Z,31.30
2022-11-14T08:25:41.831Z,35.60
2022-11-14T08:27:46.867Z,32.40
2022-11-14T08:29:49.056Z,34.15
2022-11-14T08:31:53.528Z,32.90
2022-11-14T08:33:59.363Z,33.80
2022-11-14T08:36:04.729Z,33.70
2022-11-14T08:38:06.577Z,36.08
2022-11-14T08:40:10.987Z,37.28
2022-11-14T08:42:12.959Z,34.88
2022-11-14T08:44:14.874Z,34.28
2022-11-14T08:46:16.757Z,33.03
2022-11-14T08:48:18.709Z,31.42
2022-11-14T08:50:20.616Z,30.80
2022-11-14T08:52:23.207Z,31.17
2022-11-14T08:54:25.129Z,31.45
2022-11-14T08:56:26.986Z,30.23
2022-11-14T08:58:31.592Z,27.25
2022-11-14T09:00:33.938Z,33.53
2022-11-14T09:02:35.824Z,33.15
2022-11-14T09:04:38.462Z,36.65
2022-11-14T09:06:40.641Z,32.88
2022-11-14T09:08:43.005Z,33.95
2022-11-14T09:10:45.557Z,29.52
2022-11-14T09:12:47.497Z,33.15
2022-11-14T09:14:49.510Z,34.53
2022-11-14T09:16:51.615Z,31.30
2022-11-14T09:18:53.587Z,31.80
2022-11-14T09:21:02.226Z,29.30
2022-11-14T09:23:04.890Z,34.42
2022-11-14T09:25:08.177Z,28.15
2022-11-14T09:27:09.991Z,29.25
2022-11-14T09:29:11.926Z,31.15
2022-11-14T09:31:15.517Z,31.20
2022-11-14T09:33:17.677Z,32.58
2022-11-14T09:35:19.656Z,31.13
2022-11-14T09:37:21.616Z,32.70
2022-11-14T09:39:23.555Z,32.20
2022-11-14T09:41:32.256Z,32.13
2022-11-14T09:43:44.435Z,32.97
2022-11-14T09:45:51.436Z,34.30
2022-11-14T09:48:04.404Z,30.75
2022-11-14T09:50:08.986Z,31.83
2022-11-14T09:52:29.930Z,36.80
2022-11-14T09:54:44.247Z,34.92
2022-11-14T09:56:46.224Z,30.73
2022-11-14T09:58:48.131Z,32.70
2022-11-14T10:00:58.659Z,32.42
2022-11-14T10:03:21.843Z,27.02
2022-11-14T10:05:38.248Z,26.08
2022-11-14T10:07:57.001Z,23.95
2022-11-14T10:10:14.562Z,25.67
2022-11-14T10:12:23.909Z,21.88
2022-11-14T10:14:36.984Z,21.17
2022-11-14T10:16:54.603Z,20.05
2022-11-14T10:19:02.986Z,18.27
2022-11-14T10:21:18.447Z,22.80
2022-11-14T10:23:30.584Z,21.88
2022-11-14T10:25:44.255Z,25.60
2022-11-14T10:28:06.260Z,25.48
2022-11-14T10:30:12.787Z,23.25
2022-11-14T10:32:21.411Z,28.92
2022-11-14T10:34:32.957Z,23.88
2022-11-14T10:36:54.788Z,24.55
2022-11-14T10:39:11.070Z,25.52
2022-11-14T10:41:34.488Z,28.40
2022-11-14T10:43:43.945Z,23.83
2022-11-14T10:45:52.713Z,30.30
2022-11-14T10:48:00.652Z,24.95
2022-11-14T10:50:16.272Z,29.83
2022-11-14T10:52:22.852Z,29.55
2022-11-14T10:54:35.145Z,27.92
2022-11-14T10:56:51.035Z,29.02
2022-11-14T10:58:52.885Z,28.33
2022-11-14T11:00:54.945Z,29.88
2022-11-14T11:02:57.875Z,24.42
2022-11-14T11:05:14.950Z,26.40
2022-11-14T11:07:31.923Z,25.00
2022-11-14T11:09:46.276Z,27.25
2022-11-14T11:11:59.078Z,27.73
2022-11-14T11:14:01.748Z,27.48
2022-11-14T11:16:05.262Z,30.10
2022-11-14T11:18:32.918Z,25.42
2022-11-14T11:20:38.830Z,28.85
2022-11-14T11:22:40.976Z,27.08
2022-11-14T11:24:44.278Z,30.63
2022-11-14T11:26:46.225Z,26.63
2022-11-14T11:29:03.527Z,27.52
2022-11-14T11:31:08.420Z,25.08
2022-11-14T11:33:20.445Z,29.90
2022-11-14T11:35:22.958Z,26.65
2022-11-14T11:39:42.951Z,32.95
2022-11-14T11:42:08.771Z,27.30
2022-11-14T11:44:15.530Z,24.40
2022-11-14T11:46:26.906Z,24.63
2022-11-14T11:48:38.069Z,24.23
2022-11-14T11:50:41.526Z,23.20
2022-11-14T11:52:43.976Z,26.45
2022-11-14T11:55:05.297Z,22.88
2022-11-14T11:57:21.464Z,27.40
2022-11-14T11:59:38.421Z,21.30
2022-11-14T12:01:40.479Z,23.27
2022-11-14T12:03:48.663Z,21.08
2022-11-14T12:05:58.925Z,21.42
2022-11-14T12:08:04.796Z,27.13
2022-11-14T12:10:17.945Z,21.55
2022-11-14T12:12:49.257Z,21.33
2022-11-14T12:15:08.860Z,23.02
2022-11-14T12:17:22.687Z,22.52
2022-11-14T12:19:47.514Z,29.63
2022-11-14T12:21:58.906Z,19.95
2022-11-14T12:24:03.247Z,19.85
2022-11-14T12:26:24.399Z,22.13
2022-11-14T12:28:37.378Z,22.50
2022-11-14T12:30:42.269Z,23.60
2022-11-14T12:32:53.556Z,24.63
2022-11-14T12:34:55.931Z,23.52
2022-11-14T12:36:58.646Z,21.83
2022-11-14T12:39:02.733Z,26.88
2022-11-14T12:41:07.785Z,24.27
2022-11-14T12:43:34.762Z,25.23
2022-11-14T12:45:41.990Z,23.63
2022-11-14T12:48:13.567Z,29.23
2022-11-14T12:50:30.076Z,27.88
2022-11-14T12:52:42.600Z,34.08
2022-11-14T12:54:49.539Z,23.73
2022-11-14T12:57:00.042Z,28.75
2022-11-14T12:59:19.867Z,28.50
2022-11-14T13:01:31.661Z,28.65
2022-11-14T13:03:53.368Z,25.13
2022-11-14T13:06:05.529Z,26.27
2022-11-14T13:08:22.466Z,27.40
2022-11-14T13:10:31.171Z,26.50
2022-11-14T13:12:44.857Z,28.10
2022-11-14T13:15:00.829Z,28.40
2022-11-14T13:17:31.787Z,25.00
2022-11-14T13:24:07.930Z,26.85
2022-11-14T13:26:10.797Z,33.42
2022-11-14T13:28:32.045Z,27.65
2022-11-14T13:30:53.086Z,24.15
2022-11-14T13:32:56.071Z,21.63
2022-11-14T13:35:07.337Z,21.70
2022-11-14T13:37:32.876Z,28.70
2022-11-14T13:39:54.061Z,33.00
2022-11-14T13:42:03.351Z,30.00
2022-11-14T13:44:16.085Z,30.48
2022-11-14T13:46:30.535Z,28.02
2022-11-14T13:48:47.323Z,30.08
2022-11-14T13:50:53.094Z,26.65
2022-11-14T13:52:55.727Z,25.15
2022-11-14T13:54:58.957Z,26.70
2022-11-14T13:57:14.996Z,26.88
2022-11-14T13:59:26.938Z,29.08
2022-11-14T14:01:29.918Z,30.15
2022-11-14T14:03:42.019Z,47.17
2022-11-14T14:06:01.081Z,38.22
2022-11-14T14:08:15.681Z,34.10
2022-11-14T14:10:36.930Z,38.53
2022-11-14T14:13:01.479Z,43.25
2022-11-14T14:15:12.679Z,28.02
2022-11-14T14:17:23.118Z,21.58
2022-11-14T14:19:44.900Z,22.13
2022-11-14T14:22:00.689Z,24.05
2022-11-14T14:24:15.248Z,24.02
2022-11-14T14:26:25.442Z,28.38
2022-11-14T14:28:41.617Z,26.38
2022-11-14T14:31:10.991Z,24.73
2022-11-14T14:33:15.162Z,26.67
2022-11-14T14:35:26.318Z,24.23
2022-11-14T14:37:29.900Z,27.10
2022-11-14T14:39:31.764Z,24.13
2022-11-14T14:41:35.116Z,21.13
2022-11-14T14:43:37.342Z,24.13
2022-11-14T14:45:51.911Z,24.50
2022-11-14T14:48:03.426Z,21.80
2022-11-14T14:50:16.944Z,22.65
2022-11-14T14:52:21.161Z,22.63
2022-11-14T14:54:27.234Z,24.75
2022-11-14T14:56:29.691Z,23.25
2022-11-14T14:58:34.203Z,27.83
2022-11-14T15:00:37.060Z,21.52
2022-11-14T15:02:39.253Z,28.00
2022-11-14T15:04:41.991Z,18.25
2022-11-14T15:06:47.326Z,21.00
2022-11-14T15:08:50.111Z,22.27
2022-11-14T15:10:56.819Z,22.42
2022-11-14T15:13:00.098Z,27.58
2022-11-14T15:15:03.657Z,26.02
2022-11-14T15:17:06.792Z,24.27
2022-11-14T15:19:14.188Z,26.10
2022-11-14T15:21:22.345Z,26.52
2022-11-14T15:23:24.742Z,21.58
2022-11-14T15:25:27.361Z,23.65
2022-11-14T15:27:31.122Z,25.48
2022-11-14T15:29:33.472Z,26.83
2022-11-14T15:31:37.190Z,21.67
2022-11-14T15:33:42.513Z,26.33
2022-11-14T15:35:44.625Z,20.95
2022-11-14T15:38:37.074Z,23.15
2022-11-14T15:40:28.413Z,27.33
2022-11-14T15:42:31.222Z,23.75
2022-11-14T15:44:34.931Z,24.23
2022-11-14T15:46:48.225Z,22.27
2022-11-14T15:48:50.633Z,26.33
2022-11-14T15:50:52.951Z,25.17
2022-11-14T15:53:00.660Z,28.17
2022-11-14T15:55:04.124Z,29.50
2022-11-14T15:57:13.501Z,27.98
2022-11-14T15:59:15.742Z,27.73
2022-11-14T16:01:24.328Z,27.60
2022-11-14T16:03:26.674Z,28.42
2022-11-14T16:05:33.436Z,27.15
2022-11-14T16:07:38.026Z,25.23
2022-11-14T16:09:40.928Z,30.45
2022-11-14T16:11:46.340Z,27.05
2022-11-14T16:13:51.021Z,29.85
2022-11-14T16:15:53.519Z,30.55
2022-11-14T16:17:56.146Z,27.60
2022-11-14T16:19:59.468Z,30.23
2022-11-14T16:22:03.264Z,25.65
2022-11-14T16:24:06.607Z,26.15
2022-11-14T16:26:09.284Z,22.30
2022-11-14T16:28:11.536Z,23.58
2022-11-14T16:30:15.966Z,30.40
2022-11-14T16:32:18.776Z,28.85
2022-11-14T16:34:27.068Z,26.73
2022-11-14T16:36:29.332Z,27.38
2022-11-14T16:38:31.623Z,23.40
2022-11-14T16:40:35.110Z,27.08
2022-11-14T16:42:37.721Z,22.92
2022-11-14T16:44:42.941Z,26.80
2022-11-14T16:46:48.996Z,28.40
2022-11-14T16:48:52.215Z,26.20
2022-11-14T16:50:56.976Z,25.70
2022-11-14T16:52:59.635Z,29.15
2022-11-14T16:55:02.184Z,26.35
2022-11-14T16:57:04.533Z,27.25
2022-11-14T16:59:07.469Z,27.00
2022-11-14T17:01:20.098Z,31.23
2022-11-14T17:03:23.475Z,28.80
2022-11-14T17:05:26.276Z,33.70
2022-11-14T17:07:33.139Z,31.70
2022-11-14T17:09:35.600Z,33.47
2022-11-14T17:11:38.031Z,37.00
2022-11-14T17:13:40.414Z,30.92
2022-11-14T17:15:42.642Z,31.88
2022-11-14T17:17:51.129Z,38.95
2022-11-14T17:19:53.772Z,33.47
2022-11-14T17:21:56.231Z,32.70
2022-11-14T17:24:01.811Z,30.35
2022-11-14T17:26:07.111Z,29.67
2022-11-14T17:28:09.785Z,29.05
2022-11-14T17:30:13.272Z,29.63
2022-11-14T17:32:15.752Z,30.10
2022-11-14T17:34:18.472Z,33.03
2022-11-14T17:36:21.728Z,33.45
2022-11-14T17:38:24.141Z,35.90
2022-11-14T17:40:26.989Z,36.03
2022-11-14T17:42:29.543Z,31.50
2022-11-14T17:44:32.117Z,29.50
2022-11-14T17:46:35.249Z,41.28
2022-11-14T17:48:38.762Z,33.22
2022-11-14T17:50:43.449Z,35.20
2022-11-14T17:52:46.285Z,34.50
2022-11-14T17:54:48.954Z,39.85
2022-11-14T17:56:54.884Z,37.72
2022-11-14T17:58:58.401Z,38.15
2022-11-14T18:01:01.681Z,31.42
2022-11-14T18:03:05.149Z,36.15
2022-11-14T18:05:08.277Z,29.95
2022-11-14T18:07:10.796Z,32.90
2022-11-14T18:09:14.698Z,31.48
2022-11-14T18:11:18.112Z,31.38
2022-11-14T18:13:20.439Z,35.63
2022-11-14T18:15:27.714Z,35.58
2022-11-14T18:17:32.259Z,28.98
2022-11-14T18:19:35.297Z,32.70
2022-11-14T18:21:39.063Z,34.03
2022-11-14T18:23:45.209Z,31.05
2022-11-14T18:25:49.863Z,33.38
2022-11-14T18:27:52.188Z,34.60
2022-11-14T18:30:03.886Z,33.25
2022-11-14T18:32:10.734Z,31.55
2022-11-14T18:34:13.716Z,30.35
2022-11-14T18:36:16.980Z,29.48
2022-11-14T18:38:19.635Z,35.15
2022-11-14T18:40:22.474Z,33.08
2022-11-14T18:42:25.010Z,33.40
2022-11-14T18:44:28.974Z,24.15
2022-11-14T18:46:37.170Z,33.15
2022-11-14T18:48:43.868Z,32.28
2022-11-14T18:50:46.224Z,25.95
2022-11-14T18:52:48.475Z,24.92
2022-11-14T18:54:50.886Z,25.30
2022-11-14T18:56:53.278Z,25.45
2022-11-14T18:58:57.046Z,24.92
2022-11-14T19:00:59.414Z,26.27
2022-11-14T19:03:06.039Z,32.42
2022-11-14T19:05:09.587Z,22.35
2022-11-14T19:07:12.472Z,23.55
2022-11-14T19:09:18.623Z,28.50
2022-11-14T19:11:30.843Z,20.42
2022-11-14T19:13:34.507Z,21.60
2022-11-14T19:15:38.389Z,24.30
2022-11-14T19:17:40.949Z,25.48
2022-11-14T19:19:43.051Z,20.75
2022-11-14T19:21:48.272Z,25.95
2022-11-14T19:23:51.284Z,22.15
2022-11-14T19:25:58.934Z,22.83
2022-11-14T19:28:01.019Z,21.20
2022-11-14T19:30:04.130Z,20.30
2022-11-14T19:32:07.030Z,22.27
2022-11-14T19:34:10.399Z,19.30
2022-11-14T19:36:18.821Z,24.90
2022-11-14T19:38:29.986Z,22.83
2022-11-14T19:40:32.371Z,40.53
2022-11-14T19:42:34.468Z,35.70
2022-11-14T19:44:36.812Z,27.33
2022-11-14T19:46:43.005Z,25.50
2022-11-14T19:48:49.898Z,21.95
2022-11-14T19:51:01.517Z,22.17
2022-11-14T19:53:04.729Z,18.50
2022-11-14T19:55:07.205Z,21.95
2022-11-14T19:57:09.523Z,20.52
2022-11-14T19:59:15.442Z,21.55
2022-11-14T20:01:22.002Z,24.10
2022-11-14T20:03:23.964Z,14.38
2022-11-14T20:05:26.067Z,20.63
2022-11-14T20:07:28.799Z,18.42
2022-11-14T20:09:30.950Z,17.98
2022-11-14T20:11:33.565Z,15.90
2022-11-14T20:13:38.350Z,17.23
2022-11-14T20:15:40.545Z,16.48
2022-11-14T20:17:42.657Z,17.00
2022-11-14T20:19:44.679Z,15.23
2022-11-14T20:21:46.909Z,13.48
2022-11-14T20:23:49.359Z,19.88
2022-11-14T20:25:56.170Z,19.73
2022-11-14T20:27:58.257Z,13.23
2022-11-14T20:30:00.253Z,14.60
2022-11-14T20:32:03.533Z,12.73
2022-11-14T20:34:05.656Z,14.25
2022-11-14T20:36:11.327Z,15.32
2022-11-14T20:38:13.348Z,7.60
2022-11-14T20:40:15.623Z,10.23
2022-11-14T20:42:20.527Z,7.45
2022-11-14T20:44:22.842Z,11.95
2022-11-14T20:46:24.974Z,11.13
2022-11-14T20:48:29.789Z,7.82
2022-11-14T20:50:31.552Z,11.88
2022-11-14T20:52:33.255Z,8.18
2022-11-14T20:54:34.923Z,8.15
2022-11-14T20:56:38.176Z,9.93
2022-11-14T20:58:43.892Z,7.22
2022-11-14T21:00:45.601Z,7.63
2022-11-14T21:02:49.055Z,6.80
2022-11-14T21:04:50.860Z,5.53
2022-11-14T21:06:52.709Z,9.32
2022-11-14T21:08:54.616Z,5.55
2022-11-14T21:11:02.403Z,4.00
2022-11-14T21:13:26.830Z,7.82
2022-11-14T21:15:28.442Z,4.25
2022-11-14T21:17:31.722Z,5.55
2022-11-14T21:19:33.431Z,5.53
2022-11-14T21:21:37.592Z,4.13
2022-11-14T21:23:39.684Z,5.07
2022-11-14T21:25:41.802Z,4.57
2022-11-14T21:27:44.766Z,5.57
2022-11-14T21:29:46.611Z,5.35
2022-11-14T21:31:48.403Z,1.95
2022-11-14T21:33:52.685Z,5.90
2022-11-14T21:35:55.076Z,3.15
2022-11-14T21:37:56.704Z,4.20
2022-11-14T21:39:58.609Z,2.97
2022-11-14T21:42:00.236Z,4.28
2022-11-14T21:44:03.619Z,6.25
2022-11-14T21:46:07.335Z,2.67
2022-11-14T21:48:09.060Z,3.60
2022-11-14T21:50:10.693Z,5.38
2022-11-14T21:52:12.312Z,4.35
2022-11-14T21:54:14.152Z,4.38
2022-11-14T21:56:22.381Z,2.30
2022-11-14T21:58:24.048Z,4.43
2022-11-14T22:00:25.805Z,2.65
2022-11-14T22:02:50.176Z,4.25
2022-11-14T22:04:51.817Z,3.30
2022-11-14T22:06:54.390Z,3.78
2022-11-14T22:08:56.141Z,1.90
2022-11-14T22:11:01.435Z,4.88
2022-11-14T22:13:03.091Z,1.83
2022-11-14T22:15:05.284Z,5.75
2022-11-14T22:17:06.973Z,5.82
2022-11-14T22:19:08.651Z,5.03
2022-11-14T22:21:10.673Z,6.20
2022-11-14T22:23:12.383Z,3.55
2022-11-14T22:25:14.493Z,2.30
2022-11-14T22:27:16.133Z,2.42
2022-11-14T22:29:17.798Z,4.32
2022-11-14T22:31:24.058Z,8.20
2022-11-14T22:33:25.716Z,6.50
2022-11-14T22:35:27.583Z,9.35
2022-11-14T22:37:29.486Z,3.90
2022-11-14T22:39:31.215Z,4.95
2022-11-14T22:41:33.837Z,5.30
2022-11-14T22:43:35.659Z,7.05
2022-11-14T22:45:37.329Z,10.57
2022-11-14T22:47:38.992Z,6.35
2022-11-14T22:49:40.674Z,11.40
2022-11-14T22:51:42.324Z,7.38
2022-11-14T22:53:48.243Z,8.57
2022-11-14T22:55:49.958Z,1.63
2022-11-14T22:57:51.682Z,6.15
2022-11-14T22:59:53.669Z,8.15
2022-11-14T23:01:56.901Z,5.50
2022-11-14T23:04:01.609Z,7.35
2022-11-14T23:06:14.127Z,7.47
2022-11-14T23:08:17.895Z,5.28
2022-11-14T23:10:19.734Z,3.33
2022-11-14T23:12:21.728Z,9.40
2022-11-14T23:14:23.389Z,4.60
2022-11-14T23:16:31.100Z,3.58
2022-11-14T23:18:32.830Z,7.57
2022-11-14T23:20:36.135Z,7.60
2022-11-14T23:22:40.619Z,4.22
2022-11-14T23:24:42.742Z,7.07
2022-11-14T23:26:44.838Z,5.15
2022-11-14T23:28:46.562Z,5.55
2022-11-14T23:30:48.284Z,7.15
2022-11-14T23:32:50.009Z,6.07
2022-11-14T23:34:51.713Z,10.20
2022-11-14T23:36:53.369Z,5.65
2022-11-14T23:38:55.104Z,6.22
2022-11-14T23:41:01.527Z,7.35
2022-11-14T23:43:03.384Z,8.10
2022-11-14T23:45:05.513Z,6.32
2022-11-14T23:47:07.225Z,8.27
2022-11-14T23:49:08.931Z,6.72
2022-11-14T23:51:11.581Z,5.32
2022-11-14T23:53:13.326Z,6.82
2022-11-14T23:55:15.129Z,4.22
2022-11-14T23:57:16.987Z,2.78
2022-11-14T23:59:19.014Z,7.40
